ePrivacy and GPDR Cookie Consent by Cookie Consent
EmailTwitter


Observations de surface / Europe / LIRF (16242)

Régions: Québec | Canada | États-Unis | Europe | France | UK | Ailleurs
Station
Affichage
Infos & localisation pour LIRF (16242) | Aide pour décoder les METARs

Observations prises le 2023-02-05 à 23H20 UTC (LIRF)

Température: 4.0 Celsius

Point de rosée: -7.0 Celsius

Humidité relative: 45%

Facteur vent 0.

Vents: Nord-est à 17 km/h ou 9 noeuds.

Pression au niveau moyen de la mer: 102.80 kilopascals.

Observation METAR:

LIRF 052320Z 04009KT CAVOK 04/M07 Q1028 NOSIG=